Time;durP1;ratioP1;P1;durP2;ratioP2;P2;SDS_P1;SDS_P2;PMS_P1;PMS_P2;Temp;Humidity;BMP_temperature;BMP_pressure;BME280_temperature;BME280_humidity;BME280_pressure;Samples;Min_cycle;Max_cycle;Signal;HPM_P1;HPM_P2
2024/02/19 00:02:20;;;;;;;7.80;3.47;;;;;;;10.09;77.69;101513.53;5018030;28;20048;-48
2024/02/19 00:04:46;;;;;;;11.57;3.63;;;;;;;10.12;78.51;101512.72;5017092;28;20521;-47
2024/02/19 00:07:17;;;;;;;7.28;3.90;;;;;;;10.11;77.83;101516.16;5023255;28;20042;-47
2024/02/19 00:09:45;;;;;;;10.20;3.40;;;;;;;10.11;78.35;101510.97;5023696;28;20059;-47
2024/02/19 00:12:12;;;;;;;5.63;3.47;;;;;;;10.07;77.77;101514.34;5008741;28;20044;-52
2024/02/19 00:14:39;;;;;;;7.28;2.75;;;;;;;10.05;77.55;101513.41;5021712;28;20095;-50
2024/02/19 00:17:06;;;;;;;6.20;2.60;;;;;;;10.01;77.80;101513.34;5018115;28;20074;-49
2024/02/19 00:19:32;;;;;;;6.97;3.20;;;;;;;9.99;78.37;101520.19;5018366;28;20057;-48
2024/02/19 00:21:59;;;;;;;9.93;3.20;;;;;;;9.97;78.20;101519.28;5018414;28;20094;-49
2024/02/19 00:24:29;;;;;;;7.38;2.13;;;;;;;9.96;77.95;101512.34;5016798;28;20411;-47
2024/02/19 00:26:56;;;;;;;9.07;3.70;;;;;;;9.96;78.53;101514.94;5021203;28;20048;-52
2024/02/19 00:29:23;;;;;;;6.50;2.53;;;;;;;9.97;78.16;101513.25;5015460;28;20042;-49
2024/02/19 00:31:49;;;;;;;12.02;2.80;;;;;;;9.96;78.28;101496.81;5021415;28;20053;-53
2024/02/19 00:34:17;;;;;;;9.55;3.83;;;;;;;9.95;77.82;101500.25;5014966;28;20466;-49
2024/02/19 00:36:46;;;;;;;4.50;2.15;;;;;;;9.96;77.88;101491.66;5020520;28;20419;-49
2024/02/19 00:39:13;;;;;;;3.90;2.30;;;;;;;9.96;77.88;101495.97;5014694;28;20077;-52
2024/02/19 00:41:40;;;;;;;6.60;2.78;;;;;;;9.93;78.25;101495.91;5024239;28;20045;-51
2024/02/19 00:44:07;;;;;;;7.25;2.92;;;;;;;9.92;77.64;101494.16;5012608;28;20042;-48
2024/02/19 00:46:34;;;;;;;10.68;3.08;;;;;;;9.90;77.72;101488.94;5019815;28;20068;-49
2024/02/19 00:49:00;;;;;;;9.52;3.42;;;;;;;9.85;78.64;101487.94;5011826;28;20066;-52
2024/02/19 00:51:27;;;;;;;7.05;2.42;;;;;;;9.82;78.55;101483.56;5026888;28;20049;-48
2024/02/19 00:53:54;;;;;;;10.00;2.78;;;;;;;9.81;77.81;101475.75;5022387;28;20049;-46
2024/02/19 00:56:20;;;;;;;7.07;1.30;;;;;;;9.76;78.33;101468.78;5026147;28;20556;-47
2024/02/19 00:58:48;;;;;;;5.72;3.20;;;;;;;9.69;78.15;101474.63;5028813;28;20108;-50
2024/02/19 01:01:15;;;;;;;6.80;3.15;;;;;;;9.66;78.65;101471.97;5016498;28;20511;-48
2024/02/19 01:03:44;;;;;;;6.38;2.30;;;;;;;9.64;78.51;101476.25;5021822;28;20053;-49
2024/02/19 01:06:11;;;;;;;9.32;2.13;;;;;;;9.59;78.79;101475.28;5024288;28;20057;-47
2024/02/19 01:08:38;;;;;;;6.50;2.40;;;;;;;9.58;78.55;101474.38;5016206;28;20060;-45
2024/02/19 01:11:07;;;;;;;5.53;3.08;;;;;;;9.56;78.57;101472.59;5014435;28;20053;-47
2024/02/19 01:13:34;;;;;;;3.67;1.95;;;;;;;9.54;78.53;101464.81;5018986;28;20050;-49
2024/02/19 01:16:02;;;;;;;3.22;2.65;;;;;;;9.51;78.17;101457.84;5026272;28;20132;-49
2024/02/19 01:18:30;;;;;;;7.95;2.40;;;;;;;9.47;78.62;101466.38;5023262;28;20080;-50
2024/02/19 01:20:57;;;;;;;14.05;3.08;;;;;;;9.44;78.57;101455.06;5015251;28;20041;-49
2024/02/19 01:23:26;;;;;;;8.88;3.10;;;;;;;9.42;78.38;101436.91;5026254;28;20053;-46
2024/02/19 01:25:53;;;;;;;3.97;1.52;;;;;;;9.37;78.93;101444.59;5025780;28;20049;-51
2024/02/19 01:28:22;;;;;;;4.43;2.10;;;;;;;9.36;78.67;101447.97;5025687;28;20049;-47
2024/02/19 01:30:49;;;;;;;5.45;2.20;;;;;;;9.36;78.55;101458.31;5017056;28;20727;-46
2024/02/19 01:33:17;;;;;;;8.55;1.95;;;;;;;9.34;78.33;101465.19;5028282;28;20391;-48
2024/02/19 01:35:45;;;;;;;5.60;2.30;;;;;;;9.33;78.36;101452.22;5012157;28;20042;-49
2024/02/19 01:38:13;;;;;;;6.38;2.38;;;;;;;9.31;78.88;101448.72;5017389;28;20045;-46
2024/02/19 01:40:42;;;;;;;5.03;2.13;;;;;;;9.28;78.53;101443.47;5024777;28;20140;-47
2024/02/19 01:43:09;;;;;;;4.57;2.65;;;;;;;9.26;78.93;101451.19;5014346;28;20115;-48
2024/02/19 01:45:38;;;;;;;7.90;2.30;;;;;;;9.24;78.86;101453.75;5016220;28;20052;-46
2024/02/19 01:48:07;;;;;;;6.90;2.40;;;;;;;9.22;78.88;101450.22;5014187;28;20124;-48
2024/02/19 01:50:37;;;;;;;5.07;2.30;;;;;;;9.20;78.85;101462.25;5013416;28;20056;-48
2024/02/19 01:53:07;;;;;;;4.10;2.25;;;;;;;9.15;79.43;101453.50;5024434;28;20077;-45
2024/02/19 01:55:37;;;;;;;7.57;2.25;;;;;;;9.15;78.92;101453.50;5025785;28;20049;-50
2024/02/19 01:58:06;;;;;;;6.35;2.28;;;;;;;9.14;78.64;101454.31;5010656;28;20054;-50
2024/02/19 02:00:33;;;;;;;8.15;2.97;;;;;;;9.15;79.70;101448.31;5024142;28;20054;-48
2024/02/19 02:03:02;;;;;;;3.00;1.70;;;;;;;9.14;79.43;101449.16;5023425;28;20049;-50
2024/02/19 02:05:29;;;;;;;5.63;1.92;;;;;;;9.11;79.40;101428.41;5023075;28;20049;-49
2024/02/19 02:07:56;;;;;;;8.70;2.42;;;;;;;9.12;79.42;101437.91;5026307;28;20041;-47
2024/02/19 02:10:23;;;;;;;4.50;1.88;;;;;;;9.10;79.07;101434.41;5026890;28;20502;-50
2024/02/19 02:12:50;;;;;;;1.98;1.80;;;;;;;9.07;79.13;101435.22;5021403;28;20112;-47
2024/02/19 02:15:17;;;;;;;7.00;2.25;;;;;;;9.06;78.98;101422.25;5026286;28;20053;-49
2024/02/19 02:17:43;;;;;;;9.07;2.60;;;;;;;9.04;79.60;101423.91;5016016;28;20046;-47
2024/02/19 02:20:12;;;;;;;8.27;2.60;;;;;;;9.06;79.40;101417.97;5019678;28;20049;-43
2024/02/19 02:22:40;;;;;;;6.35;1.27;;;;;;;9.06;79.27;101406.75;5026758;28;20403;-48
2024/02/19 02:25:06;;;;;;;4.60;2.58;;;;;;;9.04;79.57;101396.34;5015095;28;20060;-49
2024/02/19 02:27:33;;;;;;;2.08;1.88;;;;;;;9.05;79.52;101384.31;5023311;28;20049;-47
2024/02/19 02:30:03;;;;;;;4.40;2.13;;;;;;;9.03;79.19;101376.53;5017908;28;20045;-46
2024/02/19 02:32:30;;;;;;;3.35;2.80;;;;;;;9.03;79.50;101385.97;5022136;28;20048;-49
2024/02/19 02:34:57;;;;;;;6.47;3.28;;;;;;;9.02;78.99;101379.91;5026215;28;20069;-53
2024/02/19 02:37:24;;;;;;;4.72;1.77;;;;;;;9.01;79.05;101370.44;5021697;28;20073;-47
2024/02/19 02:39:51;;;;;;;6.65;2.17;;;;;;;9.02;79.04;101368.72;5027207;28;20131;-46
2024/02/19 02:42:17;;;;;;;7.38;1.75;;;;;;;9.00;78.97;101361.81;5020656;28;20391;-48
2024/02/19 02:44:44;;;;;;;6.45;2.47;;;;;;;9.02;78.94;101373.91;5015102;28;20072;-50
2024/02/19 02:47:12;;;;;;;7.32;2.53;;;;;;;8.98;79.54;101378.97;5011444;28;20049;-48
2024/02/19 02:49:39;;;;;;;8.63;2.80;;;;;;;8.97;79.26;101374.66;5024149;28;20057;-50
2024/02/19 02:52:06;;;;;;;4.10;2.05;;;;;;;8.95;79.19;101358.22;5008905;28;20038;-48
2024/02/19 02:54:33;;;;;;;6.13;1.67;;;;;;;8.96;79.07;101362.59;5017046;28;20053;-45
2024/02/19 02:57:00;;;;;;;7.55;2.28;;;;;;;8.94;79.77;101377.16;5023063;28;20135;-47
2024/02/19 02:59:27;;;;;;;5.07;2.08;;;;;;;8.91;79.56;101379.66;5015135;28;20479;-50
2024/02/19 03:01:54;;;;;;;3.72;2.00;;;;;;;8.90;79.39;101400.28;5003502;28;20065;-53
2024/02/19 03:04:21;;;;;;;5.47;2.50;;;;;;;8.90;79.40;101393.41;5011641;28;20053;-49
2024/02/19 03:06:48;;;;;;;4.68;3.80;;;;;;;8.93;79.59;101382.28;5019177;28;20056;-50
2024/02/19 03:09:15;;;;;;;4.85;2.13;;;;;;;8.93;79.82;101390.94;5021688;28;20045;-49
2024/02/19 03:11:42;;;;;;;8.98;2.70;;;;;;;8.96;79.41;101370.34;5022060;28;20128;-50
2024/02/19 03:14:13;;;;;;;4.95;2.63;;;;;;;8.97;79.77;101361.75;5025979;28;20548;-49
2024/02/19 03:16:40;;;;;;;4.47;2.33;;;;;;;8.96;79.98;101352.25;5016832;28;20053;-50
2024/02/19 03:19:09;;;;;;;7.50;2.97;;;;;;;8.96;80.06;101353.94;5015537;28;20063;-47
2024/02/19 03:21:37;;;;;;;4.35;2.40;;;;;;;8.93;79.88;101367.66;5026416;28;20057;-50
2024/02/19 03:24:04;;;;;;;3.88;2.50;;;;;;;8.92;79.57;101363.31;5019807;28;20092;-48
2024/02/19 03:26:31;;;;;;;5.93;3.53;;;;;;;8.92;80.03;101358.16;5013092;28;20049;-49
2024/02/19 03:29:12;;;;;;;5.15;2.53;;;;;;;8.94;80.56;101340.97;5012527;28;20522;-50
2024/02/19 03:31:41;;;;;;;5.20;2.50;;;;;;;8.92;80.04;101324.56;5015218;28;20052;-47
2024/02/19 03:34:07;;;;;;;6.85;2.47;;;;;;;8.94;79.52;101329.75;5021069;28;20049;-45
2024/02/19 03:36:35;;;;;;;3.65;2.38;;;;;;;8.91;80.31;101324.53;5024665;28;20128;-53
2024/02/19 03:39:03;;;;;;;3.42;2.20;;;;;;;8.91;79.96;101309.91;5012151;28;20522;-51
2024/02/19 03:41:31;;;;;;;4.60;3.00;;;;;;;8.88;80.11;101314.97;5019659;28;20160;-50
2024/02/19 03:43:58;;;;;;;4.97;2.75;;;;;;;8.88;79.96;101304.66;5021031;28;20049;-44
2024/02/19 03:46:25;;;;;;;3.83;2.58;;;;;;;8.84;79.88;101277.00;5022154;28;20055;-48
2024/02/19 03:48:54;;;;;;;8.07;2.75;;;;;;;8.82;79.86;101270.94;5016944;28;20045;-47
2024/02/19 03:51:21;;;;;;;10.68;2.72;;;;;;;8.79;79.94;101278.59;5017014;28;20546;-50
2024/02/19 03:53:48;;;;;;;6.45;2.47;;;;;;;8.72;80.06;101265.53;5011605;28;20057;-50
2024/02/19 03:56:14;;;;;;;7.63;2.58;;;;;;;8.71;79.85;101273.22;5023898;28;20053;-48
2024/02/19 03:58:41;;;;;;;4.63;2.72;;;;;;;8.68;79.74;101284.34;5024137;28;20689;-47
2024/02/19 04:01:08;;;;;;;4.47;1.30;;;;;;;8.65;80.11;101281.69;5009804;28;20427;-45
2024/02/19 04:03:35;;;;;;;6.30;2.50;;;;;;;8.65;79.92;101291.19;5017106;28;20384;-45
2024/02/19 04:06:02;;;;;;;3.75;2.97;;;;;;;8.61;79.94;101287.63;5018805;28;20585;-46
2024/02/19 04:08:31;;;;;;;4.50;2.53;;;;;;;8.59;80.09;101286.72;5020055;28;20041;-48
2024/02/19 04:10:58;;;;;;;10.88;2.45;;;;;;;8.56;80.48;101289.22;5012472;28;20172;-50
2024/02/19 04:13:25;;;;;;;7.18;3.35;;;;;;;8.52;80.28;101295.13;5018416;28;20045;-44
2024/02/19 04:15:53;;;;;;;4.65;2.67;;;;;;;8.52;80.28;101297.69;5019343;28;20037;-47
2024/02/19 04:18:22;;;;;;;6.35;2.97;;;;;;;8.49;80.10;101296.75;5025779;28;20058;-51
2024/02/19 04:20:51;;;;;;;4.93;2.75;;;;;;;8.47;80.54;101295.88;5020919;28;20060;-49
2024/02/19 04:23:18;;;;;;;4.13;2.35;;;;;;;8.43;80.60;101301.78;5024214;28;20454;-52
2024/02/19 04:25:44;;;;;;;3.22;2.88;;;;;;;8.38;80.63;101323.16;5025467;28;20120;-48
2024/02/19 04:28:11;;;;;;;6.20;3.22;;;;;;;8.42;80.11;101305.22;5029077;28;20071;-46
2024/02/19 04:30:38;;;;;;;4.65;2.97;;;;;;;8.40;80.39;101306.88;5021769;28;20045;-50
2024/02/19 04:33:05;;;;;;;7.18;3.05;;;;;;;8.37;80.95;101296.44;5023363;28;20056;-44
2024/02/19 04:35:32;;;;;;;6.70;2.63;;;;;;;8.38;80.86;101287.00;5018238;28;20050;-48
2024/02/19 04:37:59;;;;;;;4.70;2.70;;;;;;;8.39;80.11;101299.97;5018055;28;20046;-47
2024/02/19 04:40:26;;;;;;;5.25;2.67;;;;;;;8.37;80.55;101301.63;5022576;28;20075;-45
2024/02/19 04:42:52;;;;;;;4.30;2.47;;;;;;;8.38;80.50;101287.00;5026939;28;20049;-50
2024/02/19 04:45:20;;;;;;;5.43;4.38;;;;;;;8.36;80.54;101289.56;5025903;28;20045;-46
2024/02/19 04:47:48;;;;;;;7.20;2.97;;;;;;;8.35;80.62;101292.97;5029091;28;20390;-48
2024/02/19 04:50:15;;;;;;;7.32;3.65;;;;;;;8.32;80.74;101269.66;5027079;28;20052;-47
2024/02/19 04:52:42;;;;;;;11.95;4.57;;;;;;;8.31;80.26;101280.81;5015636;28;20523;-48
2024/02/19 04:55:09;;;;;;;8.95;4.45;;;;;;;8.30;80.57;101269.59;5013148;28;20050;-44
2024/02/19 04:57:36;;;;;;;9.30;4.57;;;;;;;8.26;81.42;101266.91;5025223;28;20141;-48
2024/02/19 05:00:03;;;;;;;10.10;5.22;;;;;;;8.28;80.83;101244.59;5024170;28;20099;-47
2024/02/19 05:02:30;;;;;;;11.43;4.95;;;;;;;8.26;81.21;101256.56;5020243;28;20569;-49
2024/02/19 05:04:58;;;;;;;12.00;4.32;;;;;;;8.27;80.76;101253.19;5025866;28;20049;-48
2024/02/19 05:07:24;;;;;;;9.35;3.83;;;;;;;8.29;81.10;101223.09;5023853;28;20129;-50
2024/02/19 05:09:51;;;;;;;11.68;4.88;;;;;;;8.29;81.21;101241.16;5012130;28;20042;-49
2024/02/19 05:12:19;;;;;;;9.02;4.63;;;;;;;8.29;81.22;101230.84;5012492;28;20478;-47
2024/02/19 05:14:46;;;;;;;12.80;5.00;;;;;;;8.26;80.84;101230.75;5021731;28;20057;-49
2024/02/19 05:17:13;;;;;;;14.95;4.82;;;;;;;8.25;81.11;101223.84;5025164;28;20120;-46
2024/02/19 05:19:39;;;;;;;10.38;4.75;;;;;;;8.23;81.23;101239.31;5028034;28;20057;-51
2024/02/19 05:22:08;;;;;;;8.32;3.85;;;;;;;8.18;81.69;101239.16;5022787;28;20084;-48
2024/02/19 05:24:35;;;;;;;13.02;4.90;;;;;;;8.17;81.47;101237.44;5025467;28;20063;-48
2024/02/19 05:27:02;;;;;;;10.55;4.22;;;;;;;8.19;80.61;101250.38;5022537;28;20049;-46
2024/02/19 05:29:29;;;;;;;6.75;4.05;;;;;;;8.21;81.52;101274.53;5027092;28;20054;-46
2024/02/19 05:31:55;;;;;;;8.95;3.78;;;;;;;8.21;81.17;101275.38;5023039;28;20629;-47
2024/02/19 05:34:22;;;;;;;8.02;4.43;;;;;;;8.21;81.80;101272.81;5021855;28;20050;-49
2024/02/19 05:36:49;;;;;;;10.68;4.20;;;;;;;8.21;82.13;101265.06;5023108;28;20041;-48
2024/02/19 05:39:15;;;;;;;8.95;3.90;;;;;;;8.22;81.28;101263.38;5023244;28;20057;-47
2024/02/19 05:41:43;;;;;;;10.82;5.03;;;;;;;8.19;81.49;101245.22;5027916;28;20591;-44
2024/02/19 05:44:10;;;;;;;9.20;5.78;;;;;;;8.20;81.65;101252.13;5021984;28;20053;-49
2024/02/19 05:46:37;;;;;;;8.43;3.80;;;;;;;8.21;81.49;101254.75;5028073;28;20536;-46
2024/02/19 05:49:04;;;;;;;9.32;3.53;;;;;;;8.22;81.13;101245.31;5023843;28;20079;-46
2024/02/19 05:51:31;;;;;;;10.02;3.95;;;;;;;8.23;81.33;101247.94;5027545;28;20057;-46
2024/02/19 05:53:57;;;;;;;7.40;4.10;;;;;;;8.24;81.90;101233.28;5016850;28;20060;-48
2024/02/19 05:56:26;;;;;;;9.88;4.68;;;;;;;8.25;81.23;101239.34;5022612;28;20061;-47
2024/02/19 05:58:54;;;;;;;10.25;4.82;;;;;;;8.27;82.01;101237.69;5023689;28;20049;-47
2024/02/19 06:01:21;;;;;;;10.45;4.15;;;;;;;8.25;81.49;101254.84;5015373;28;20100;-48
2024/02/19 06:03:48;;;;;;;10.85;4.38;;;;;;;8.22;81.28;101256.50;5022459;28;20195;-51
2024/02/19 06:06:15;;;;;;;12.15;4.45;;;;;;;8.19;82.34;101253.84;5026087;28;20045;-46
2024/02/19 06:08:42;;;;;;;13.20;5.20;;;;;;;8.23;81.40;101258.25;5017020;28;20053;-49
2024/02/19 06:11:08;;;;;;;10.75;4.93;;;;;;;8.28;81.98;101257.50;5013871;28;20070;-49
2024/02/19 06:13:35;;;;;;;9.32;4.45;;;;;;;8.24;82.45;101261.69;5021802;28;20050;-49
2024/02/19 06:16:02;;;;;;;10.52;4.97;;;;;;;8.28;81.48;101265.25;5026664;28;20103;-46
2024/02/19 06:18:29;;;;;;;10.50;4.85;;;;;;;8.29;82.26;101272.16;5023895;28;20045;-44
2024/02/19 06:20:56;;;;;;;18.73;5.40;;;;;;;8.31;81.82;101275.66;5023998;28;20160;-50
2024/02/19 06:23:23;;;;;;;14.02;5.03;;;;;;;8.28;81.73;101270.41;5024052;28;20049;-46
2024/02/19 06:25:49;;;;;;;9.23;3.95;;;;;;;8.32;82.14;101293.78;5013841;28;20349;-48
2024/02/19 06:28:16;;;;;;;16.55;5.15;;;;;;;8.36;81.13;101289.56;5028000;28;20100;-51
2024/02/19 06:30:43;;;;;;;14.57;5.90;;;;;;;8.39;82.28;101293.91;5023229;28;20049;-48
2024/02/19 06:33:10;;;;;;;12.25;5.47;;;;;;;8.39;81.68;101302.53;5015725;28;20045;-49
2024/02/19 06:35:36;;;;;;;15.43;5.80;;;;;;;8.43;81.73;101301.78;5019954;28;20577;-49
2024/02/19 06:38:03;;;;;;;13.38;6.22;;;;;;;8.46;82.11;101281.22;5026256;28;20049;-51
2024/02/19 06:40:30;;;;;;;12.75;4.93;;;;;;;8.45;81.63;101279.44;5026268;28;20057;-50
2024/02/19 06:42:57;;;;;;;15.18;5.82;;;;;;;8.47;81.58;101277.78;5026038;28;20057;-47
2024/02/19 06:45:23;;;;;;;11.73;4.60;;;;;;;8.51;82.15;101278.72;5025300;28;20529;-49
2024/02/19 06:47:50;;;;;;;13.82;4.28;;;;;;;8.53;81.58;101271.03;5015319;28;20056;-48
2024/02/19 06:50:17;;;;;;;17.15;7.65;;;;;;;8.56;82.00;101271.16;5018187;28;20108;-51
2024/02/19 06:52:45;;;;;;;15.73;6.60;;;;;;;8.55;82.25;101269.41;5015096;28;20050;-46
2024/02/19 06:55:14;;;;;;;12.27;5.22;;;;;;;8.55;82.46;101272.00;5015267;28;20119;-49
2024/02/19 06:57:41;;;;;;;13.13;4.93;;;;;;;8.55;82.19;101269.41;5013082;28;20617;-45
2024/02/19 07:00:10;;;;;;;11.75;5.50;;;;;;;8.58;82.03;101267.75;5006018;28;20117;-49
2024/02/19 07:02:38;;;;;;;13.07;5.03;;;;;;;8.59;82.04;101251.47;5009119;28;20133;-46
2024/02/19 07:05:06;;;;;;;13.73;4.10;;;;;;;8.61;81.97;101257.50;5010691;28;20054;-51
2024/02/19 07:07:35;;;;;;;9.85;4.13;;;;;;;8.64;82.21;101248.97;5022985;28;20052;-45
2024/02/19 07:10:03;;;;;;;11.13;4.43;;;;;;;8.64;82.26;101245.53;5016615;28;20053;-47
2024/02/19 07:12:30;;;;;;;9.27;4.25;;;;;;;8.67;82.66;101228.38;5014971;28;20084;-49
2024/02/19 07:14:57;;;;;;;11.02;4.68;;;;;;;8.71;81.98;101240.53;5010187;28;20082;-47
2024/02/19 07:17:25;;;;;;;11.82;4.93;;;;;;;8.67;82.59;101241.28;5015122;28;20048;-47
2024/02/19 07:19:52;;;;;;;9.90;5.80;;;;;;;8.70;82.31;101238.78;5021787;28;20050;-52
2024/02/19 07:22:19;;;;;;;13.45;4.93;;;;;;;8.70;82.24;101246.53;5023192;28;20047;-48
2024/02/19 07:24:46;;;;;;;12.35;4.88;;;;;;;8.68;82.10;101237.00;5022031;28;20049;-51
2024/02/19 07:27:13;;;;;;;18.60;5.95;;;;;;;8.69;82.42;101242.22;5017881;28;20048;-47
2024/02/19 07:29:42;;;;;;;16.38;5.70;;;;;;;8.69;81.91;101236.16;5025677;28;20060;-53
2024/02/19 07:32:08;;;;;;;29.02;13.55;;;;;;;8.71;82.23;101240.53;5006340;28;20080;-52
2024/02/19 07:34:35;;;;;;;40.63;19.48;;;;;;;8.68;82.68;101237.00;5021175;28;20132;-52
2024/02/19 07:37:04;;;;;;;41.13;20.38;;;;;;;8.68;82.31;101261.13;5006395;28;20076;-48
2024/02/19 07:39:31;;;;;;;16.05;9.20;;;;;;;8.71;82.70;101249.97;5018080;28;20056;-47
2024/02/19 07:41:58;;;;;;;9.15;4.43;;;;;;;8.63;82.83;101243.75;5017186;28;20446;-48
2024/02/19 07:44:26;;;;;;;12.13;3.95;;;;;;;8.73;82.69;101248.31;5012273;28;20695;-51
2024/02/19 07:46:53;;;;;;;10.93;3.95;;;;;;;8.72;82.29;101250.03;5022892;28;20061;-48
2024/02/19 07:49:19;;;;;;;14.63;5.30;;;;;;;8.71;82.71;101256.03;5020944;28;20049;-49
2024/02/19 07:51:46;;;;;;;10.32;5.15;;;;;;;8.73;82.29;101249.22;5010715;28;20054;-51
2024/02/19 07:54:13;;;;;;;10.02;3.47;;;;;;;8.71;82.67;101245.69;5015102;28;20087;-48
2024/02/19 07:56:40;;;;;;;13.82;6.20;;;;;;;8.73;82.49;101233.72;5023850;28;20775;-50
2024/02/19 07:59:06;;;;;;;7.53;3.83;;;;;;;8.75;82.60;101233.75;5015133;28;20053;-50
2024/02/19 08:01:33;;;;;;;9.88;4.90;;;;;;;8.79;82.05;101242.44;5017631;28;20453;-45
2024/02/19 08:04:00;;;;;;;11.20;4.13;;;;;;;8.77;82.66;101249.25;5024555;28;20057;-49
2024/02/19 08:06:28;;;;;;;11.25;4.20;;;;;;;8.82;82.38;101242.50;5019328;28;20049;-50
2024/02/19 08:08:55;;;;;;;8.57;3.35;;;;;;;8.83;82.75;101239.97;5018390;28;20077;-50
2024/02/19 08:11:23;;;;;;;7.03;4.00;;;;;;;8.89;82.17;101228.00;5018751;28;20580;-51
2024/02/19 08:13:50;;;;;;;8.27;3.40;;;;;;;8.85;82.27;101243.44;5023107;28;20533;-47
2024/02/19 08:16:17;;;;;;;12.13;3.95;;;;;;;8.87;82.37;101246.06;5023519;28;20112;-49
2024/02/19 08:18:44;;;;;;;14.18;5.65;;;;;;;8.88;82.31;101247.81;5017117;28;20574;-52
2024/02/19 08:21:12;;;;;;;8.25;2.72;;;;;;;8.88;82.38;101247.81;5018736;28;20528;-48
2024/02/19 08:23:39;;;;;;;11.40;3.72;;;;;;;8.90;82.12;101251.31;5024663;28;20053;-47
2024/02/19 08:26:06;;;;;;;9.13;4.25;;;;;;;8.94;82.52;101258.28;5024505;28;20502;-50
2024/02/19 08:28:32;;;;;;;10.63;3.75;;;;;;;8.94;82.27;101250.53;5017523;28;20057;-49
2024/02/19 08:31:00;;;;;;;7.32;2.80;;;;;;;8.93;82.27;101261.72;5022869;28;20506;-49
2024/02/19 08:33:27;;;;;;;9.95;4.53;;;;;;;8.94;82.07;101255.72;5024232;28;20053;-45
2024/02/19 08:35:55;;;;;;;11.52;3.47;;;;;;;8.99;81.73;101264.44;5023545;28;20049;-49
2024/02/19 08:38:22;;;;;;;6.60;3.25;;;;;;;8.99;82.09;101255.81;5026605;28;20565;-48
2024/02/19 08:40:48;;;;;;;8.90;4.07;;;;;;;8.99;82.37;101267.00;5016562;28;20055;-47
2024/02/19 08:43:15;;;;;;;12.57;3.60;;;;;;;9.10;81.91;101266.41;5026065;28;20549;-47
2024/02/19 08:45:42;;;;;;;10.73;3.53;;;;;;;9.02;82.11;101271.38;5024780;28;20053;-45
2024/02/19 08:48:09;;;;;;;11.45;3.45;;;;;;;9.16;81.77;101279.47;5010631;28;20054;-49
2024/02/19 08:50:36;;;;;;;7.90;2.03;;;;;;;9.17;81.39;101281.22;5021273;28;20616;-50
2024/02/19 08:53:03;;;;;;;8.63;2.63;;;;;;;9.22;81.76;101279.59;5027021;28;20084;-50
2024/02/19 08:55:32;;;;;;;6.72;2.53;;;;;;;9.21;81.26;101292.50;5020192;28;20046;-50
2024/02/19 08:57:59;;;;;;;8.40;2.38;;;;;;;9.40;81.84;101296.38;5026995;28;20417;-54
2024/02/19 09:00:26;;;;;;;7.80;4.40;;;;;;;10.06;81.97;101303.75;5025070;28;20058;-52
2024/02/19 09:02:56;;;;;;;6.13;3.92;;;;;;;10.98;81.04;101302.81;5028406;28;20148;-48
2024/02/19 09:05:23;;;;;;;7.57;3.67;;;;;;;11.87;79.39;101308.34;5024646;28;20077;-47
2024/02/19 09:07:50;;;;;;;8.82;4.80;;;;;;;12.10;77.23;101293.09;5014909;28;20071;-46
2024/02/19 09:10:16;;;;;;;7.93;3.35;;;;;;;11.97;76.44;101302.41;5015119;28;20064;-48
2024/02/19 09:12:43;;;;;;;10.70;4.00;;;;;;;12.49;77.57;101287.41;5028114;28;20061;-49
2024/02/19 09:15:10;;;;;;;9.93;3.75;;;;;;;13.09;76.22;101295.69;5022585;28;20045;-44
2024/02/19 09:17:37;;;;;;;16.85;5.57;;;;;;;13.71;74.61;101299.53;5021565;28;20046;-47
2024/02/19 09:20:06;;;;;;;22.60;8.32;;;;;;;14.44;74.09;101307.53;5014156;28;20060;-48
2024/02/19 09:22:33;;;;;;;20.50;8.48;;;;;;;15.18;71.41;101311.03;5020663;28;20065;-48
2024/02/19 09:25:00;;;;;;;12.70;4.45;;;;;;;15.89;71.73;101320.41;5027154;28;20129;-49
2024/02/19 09:27:27;;;;;;;13.95;3.90;;;;;;;16.56;69.49;101312.16;5022826;28;20045;-51
2024/02/19 09:29:55;;;;;;;13.73;5.30;;;;;;;17.13;68.32;101317.84;5014483;28;20060;-47
2024/02/19 09:32:22;;;;;;;16.50;5.30;;;;;;;17.13;67.16;101317.84;5022860;28;20053;-45
2024/02/19 09:34:49;;;;;;;6.70;2.80;;;;;;;16.72;66.46;101316.44;5026649;28;20720;-46
2024/02/19 09:37:16;;;;;;;6.32;2.88;;;;;;;16.13;67.01;101313.34;5021957;28;20171;-48
2024/02/19 09:39:49;;;;;;;7.47;3.75;;;;;;;15.62;67.24;101319.63;5024506;28;20081;-51
2024/02/19 09:42:16;;;;;;;6.80;2.83;;;;;;;15.06;68.07;101319.75;5021316;28;20081;-50
2024/02/19 09:44:43;;;;;;;7.32;2.53;;;;;;;14.58;68.55;101314.50;5021687;28;20053;-48
2024/02/19 09:47:15;;;;;;;10.80;4.20;;;;;;;14.14;69.06;101325.72;5018939;28;20046;-48
2024/02/19 09:49:42;;;;;;;5.50;2.28;;;;;;;13.78;69.94;101322.09;5024930;28;20053;-53
2024/02/19 09:52:11;;;;;;;8.90;2.80;;;;;;;13.53;70.37;101316.78;5020658;28;20077;-47
2024/02/19 09:54:38;;;;;;;8.45;2.30;;;;;;;13.75;70.78;101311.69;5019669;28;20068;-53
2024/02/19 09:57:10;;;;;;;10.07;2.22;;;;;;;14.43;71.79;101325.78;5024656;28;20127;-48
2024/02/19 09:59:40;;;;;;;12.80;2.72;;;;;;;14.77;70.10;101320.63;5015065;28;20127;-51
2024/02/19 10:02:09;;;;;;;;;;;;;;;14.61;68.76;101325.81;5011800;28;20049;-49
2024/02/19 10:04:37;;;;;;;8.70;2.10;;;;;;;14.38;69.30;101331.84;5011494;28;19991;-50
2024/02/19 10:07:04;;;;;;;6.85;2.60;;;;;;;14.06;69.19;101345.66;5023388;28;20037;-46
2024/02/19 10:09:31;;;;;;;9.02;2.63;;;;;;;13.75;69.08;101337.72;5025734;28;20245;-50
2024/02/19 10:11:58;;;;;;;5.22;3.75;;;;;;;13.50;69.91;101337.59;5023246;28;20048;-52
2024/02/19 10:14:26;;;;;;;7.63;3.35;;;;;;;13.32;70.13;101344.41;5022634;28;20053;-47
2024/02/19 10:16:55;;;;;;;3.55;1.27;;;;;;;13.71;71.35;101335.97;5017134;28;20469;-49
2024/02/19 10:19:25;;;;;;;6.47;2.13;;;;;;;14.31;69.59;101332.69;5022764;28;20045;-52
2024/02/19 10:21:53;;;;;;;6.07;2.65;;;;;;;14.75;67.34;101330.16;5026016;28;20041;-50
2024/02/19 10:24:19;;;;;;;6.50;2.58;;;;;;;15.17;64.77;101324.97;5014733;28;20042;-52
2024/02/19 10:26:48;;;;;;;6.05;2.13;;;;;;;15.49;64.07;101337.06;5014736;28;20049;-49
2024/02/19 10:29:14;;;;;;;6.22;2.45;;;;;;;15.76;62.88;101324.81;5020046;28;20449;-50
2024/02/19 10:31:42;;;;;;;6.03;1.85;;;;;;;16.06;61.96;101327.31;5025725;28;20088;-51
2024/02/19 10:34:11;;;;;;;6.40;2.55;;;;;;;16.35;61.23;101334.09;5023302;28;20057;-51
2024/02/19 10:36:38;;;;;;;3.08;1.80;;;;;;;16.75;60.49;101326.88;5021874;28;20057;-48
2024/02/19 10:39:05;;;;;;;10.00;2.85;;;;;;;17.06;59.16;101335.34;5021083;28;20588;-48
2024/02/19 10:41:35;;;;;;;8.73;2.08;;;;;;;17.16;54.83;101343.97;5014552;28;20060;-50
2024/02/19 10:44:03;;;;;;;;;;;;;;;17.57;56.35;101343.56;5024387;28;20160;-55
2024/02/19 10:46:31;;;;;;;6.95;2.58;;;;;;;17.72;56.79;101332.03;5026323;28;19925;-50
2024/02/19 10:48:58;;;;;;;7.78;3.90;;;;;;;17.98;56.79;101344.84;5022426;28;20057;-50
2024/02/19 10:51:25;;;;;;;8.98;2.83;;;;;;;18.05;55.82;101349.97;5023255;28;20057;-52
2024/02/19 10:54:07;;;;;;;10.43;2.45;;;;;;;18.24;55.90;101351.50;5017771;28;20057;-52
2024/02/19 10:56:39;;;;;;;7.50;2.35;;;;;;;18.28;55.53;101354.09;5024597;28;20049;-54
2024/02/19 10:59:08;;;;;;;8.23;3.00;;;;;;;18.22;55.26;101350.66;5021402;28;20064;-53
2024/02/19 11:01:37;;;;;;;5.60;1.38;;;;;;;17.99;55.23;101357.06;5016907;28;20407;-54
2024/02/19 11:04:20;;;;;;;;;;;;;;;17.66;53.52;101347.84;5013648;28;20041;-49
2024/02/19 11:06:50;;;;;;;8.70;2.22;;;;;;;17.49;55.48;101351.50;5019342;28;19925;-52
2024/02/19 11:09:18;;;;;;;9.55;2.58;;;;;;;17.07;54.25;101349.31;5010411;28;20049;-52
2024/02/19 11:11:57;;;;;;;6.43;2.67;;;;;;;16.78;54.34;101339.91;5017547;28;20045;-49
2024/02/19 11:14:27;;;;;;;6.30;2.80;;;;;;;16.36;54.47;101345.44;5016502;28;20050;-50
2024/02/19 11:16:57;;;;;;;11.10;2.72;;;;;;;16.11;55.86;101346.44;5008474;28;20083;-51
2024/02/19 11:19:23;;;;;;;;;;;;;;;15.84;54.61;101358.72;5019004;28;20053;-47
2024/02/19 11:22:02;;;;;;;11.77;2.53;;;;;;;15.70;55.86;101370.97;5018921;28;19925;-52
2024/02/19 11:24:31;;;;;;;8.93;2.22;;;;;;;15.54;56.38;101365.78;5006094;28;20083;-52
2024/02/19 11:26:59;;;;;;;11.98;3.42;;;;;;;15.38;56.97;101364.94;5025715;28;20084;-50
2024/02/19 11:29:26;;;;;;;5.72;3.40;;;;;;;15.13;57.14;101364.97;5022738;28;20140;-49
2024/02/19 11:32:08;;;;;;;7.75;2.42;;;;;;;14.77;57.58;101365.81;5016626;28;20053;-49